createdAt,value
2018-12-26T00:01:44.284Z,62.15
2018-12-26T00:04:14.245Z,61.69
2018-12-26T00:06:44.219Z,61.60
2018-12-26T00:09:13.944Z,61.72
2018-12-26T00:11:43.943Z,61.44
2018-12-26T00:14:13.951Z,61.55
2018-12-26T00:16:44.242Z,61.61
2018-12-26T00:19:14.436Z,61.32
2018-12-26T00:21:43.996Z,61.46
2018-12-26T00:24:14.105Z,61.42
2018-12-26T00:26:44.038Z,61.57
2018-12-26T00:29:14.633Z,61.48
2018-12-26T00:31:44.139Z,61.01
2018-12-26T00:34:14.587Z,61.17
2018-12-26T00:36:44.081Z,61.09
2018-12-26T00:39:14.175Z,61.07
2018-12-26T00:41:44.932Z,61.15
2018-12-26T00:44:14.727Z,60.93
2018-12-26T00:46:44.509Z,60.80
2018-12-26T00:49:14.331Z,60.87
2018-12-26T00:51:44.168Z,60.87
2018-12-26T00:54:14.189Z,60.48
2018-12-26T00:56:44.336Z,61.10
2018-12-26T00:59:14.458Z,60.71
2018-12-26T01:01:44.329Z,60.21
2018-12-26T01:04:14.388Z,60.21
2018-12-26T01:06:44.889Z,60.26
2018-12-26T01:09:14.679Z,60.28
2018-12-26T01:11:44.533Z,60.72
2018-12-26T01:14:14.381Z,60.32
2018-12-26T01:16:44.284Z,60.38
2018-12-26T01:19:14.346Z,60.19
2018-12-26T01:21:44.604Z,60.33
2018-12-26T01:24:14.576Z,60.19
2018-12-26T01:26:44.533Z,60.27
2018-12-26T01:29:14.392Z,60.11
2018-12-26T01:31:44.649Z,60.27
2018-12-26T01:34:14.448Z,60.21
2018-12-26T01:36:44.951Z,59.87
2018-12-26T01:39:14.487Z,60.15
2018-12-26T01:41:44.635Z,60.18
2018-12-26T01:44:14.427Z,59.75
2018-12-26T01:46:44.708Z,60.00
2018-12-26T01:49:14.474Z,59.74
2018-12-26T01:51:44.623Z,59.99
2018-12-26T01:54:15.422Z,59.99
2018-12-26T01:56:45.146Z,59.90
2018-12-26T01:59:15.479Z,60.32
2018-12-26T02:01:45.466Z,59.85
2018-12-26T02:04:15.315Z,59.96
2018-12-26T02:06:45.068Z,60.13
2018-12-26T02:09:15.263Z,60.23
2018-12-26T02:11:44.789Z,60.02
2018-12-26T02:14:14.768Z,60.33
2018-12-26T02:16:44.474Z,60.26
2018-12-26T02:19:14.773Z,60.04
2018-12-26T02:21:44.517Z,60.11
2018-12-26T02:24:15.056Z,60.32
2018-12-26T02:26:44.830Z,60.55
2018-12-26T02:29:14.524Z,60.62
2018-12-26T02:31:44.551Z,60.67
2018-12-26T02:34:14.964Z,60.56
2018-12-26T02:36:44.794Z,60.83
2018-12-26T02:39:14.600Z,60.46
2018-12-26T02:41:44.761Z,60.84
2018-12-26T02:44:14.866Z,60.76
2018-12-26T02:46:44.851Z,61.12
2018-12-26T02:49:14.885Z,61.31
2018-12-26T02:51:45.293Z,61.23
2018-12-26T02:54:14.768Z,61.36
2018-12-26T02:56:47.843Z,61.38
2018-12-26T02:59:16.613Z,61.41
2018-12-26T03:01:46.227Z,61.26
2018-12-26T03:04:16.333Z,61.58
2018-12-26T03:06:46.046Z,61.54
2018-12-26T03:09:15.532Z,61.58
2018-12-26T03:11:45.291Z,61.77
2018-12-26T03:14:14.898Z,62.08
2018-12-26T03:16:45.416Z,61.61
2018-12-26T03:19:14.937Z,61.60
2018-12-26T03:21:45.395Z,61.38
2018-12-26T03:24:15.150Z,61.47
2018-12-26T03:26:45.250Z,61.45
2018-12-26T03:29:14.931Z,61.26
2018-12-26T03:31:44.801Z,61.23
2018-12-26T03:34:14.751Z,61.49
2018-12-26T03:36:45.212Z,61.14
2018-12-26T03:39:15.372Z,61.63
2018-12-26T03:41:45.149Z,61.59
2018-12-26T03:44:14.954Z,61.57
2018-12-26T03:46:45.462Z,61.36
2018-12-26T03:49:15.450Z,61.75
2018-12-26T03:51:44.938Z,61.59
2018-12-26T03:54:14.880Z,61.52
2018-12-26T03:56:44.880Z,61.86
2018-12-26T03:59:15.186Z,61.74
2018-12-26T04:01:45.521Z,61.57
2018-12-26T04:04:15.375Z,61.68
2018-12-26T04:06:44.990Z,61.89
2018-12-26T04:09:15.387Z,62.16
2018-12-26T04:11:45.022Z,62.82
2018-12-26T04:14:14.893Z,63.21
2018-12-26T04:16:44.933Z,63.41
2018-12-26T04:19:15.117Z,63.13
2018-12-26T04:21:45.284Z,63.29
2018-12-26T04:24:15.066Z,63.58
2018-12-26T04:26:45.033Z,63.77
2018-12-26T04:29:15.281Z,64.16
2018-12-26T04:31:45.360Z,64.57
2018-12-26T04:34:15.382Z,64.88
2018-12-26T04:36:45.623Z,64.57
2018-12-26T04:39:15.128Z,65.17
2018-12-26T04:41:45.201Z,65.08
2018-12-26T04:44:15.150Z,65.24
2018-12-26T04:46:45.419Z,65.45
2018-12-26T04:49:15.950Z,65.74
2018-12-26T04:51:45.760Z,65.54
2018-12-26T04:54:15.273Z,66.12
2018-12-26T04:56:45.459Z,66.13
2018-12-26T04:59:15.430Z,65.68
2018-12-26T05:01:45.150Z,65.92
2018-12-26T05:04:15.232Z,65.67
2018-12-26T05:06:45.769Z,65.97
2018-12-26T05:09:15.261Z,66.85
2018-12-26T05:11:45.128Z,67.03
2018-12-26T05:14:15.140Z,67.21
2018-12-26T05:16:45.251Z,67.73
2018-12-26T05:19:15.428Z,67.92
2018-12-26T05:21:45.499Z,67.96
2018-12-26T05:24:15.237Z,68.01
2018-12-26T05:26:45.319Z,68.04
2018-12-26T05:29:15.158Z,68.43
2018-12-26T05:31:45.533Z,68.42
2018-12-26T05:34:15.208Z,68.70
2018-12-26T05:36:45.259Z,69.16
2018-12-26T05:39:15.186Z,69.10
2018-12-26T05:41:45.515Z,69.50
2018-12-26T05:44:15.240Z,69.49
2018-12-26T05:46:45.200Z,69.63
2018-12-26T05:49:15.589Z,70.11
2018-12-26T05:51:45.907Z,69.95
2018-12-26T05:54:15.398Z,70.37
2018-12-26T05:56:45.215Z,70.36
2018-12-26T05:59:15.243Z,70.34
2018-12-26T06:01:45.687Z,69.88
2018-12-26T06:04:15.232Z,69.71
2018-12-26T06:06:45.219Z,70.53
2018-12-26T06:09:15.549Z,70.39
2018-12-26T06:11:45.818Z,70.70
2018-12-26T06:14:15.314Z,70.83
2018-12-26T06:16:45.289Z,70.72
2018-12-26T06:19:15.244Z,70.47
2018-12-26T06:21:45.515Z,70.27
2018-12-26T06:24:15.525Z,70.16
2018-12-26T06:26:45.644Z,69.71
2018-12-26T06:29:15.239Z,69.42
2018-12-26T06:31:45.259Z,69.67
2018-12-26T06:34:15.269Z,69.55
2018-12-26T06:36:45.283Z,69.65
2018-12-26T06:39:15.311Z,69.63
2018-12-26T06:41:45.428Z,69.68
2018-12-26T06:44:15.651Z,70.02
2018-12-26T06:46:45.581Z,69.75
2018-12-26T06:49:15.580Z,69.84
2018-12-26T06:51:45.342Z,70.15
2018-12-26T06:54:15.625Z,69.98
2018-12-26T06:56:45.348Z,70.08
2018-12-26T06:59:15.995Z,69.97
2018-12-26T07:01:45.768Z,70.57
2018-12-26T07:04:15.970Z,70.90
2018-12-26T07:06:45.761Z,71.06
2018-12-26T07:09:16.571Z,70.89
2018-12-26T07:11:46.340Z,71.38
2018-12-26T07:14:16.236Z,71.37
2018-12-26T07:16:45.727Z,71.39
2018-12-26T07:19:15.664Z,71.71
2018-12-26T07:21:45.367Z,71.86
2018-12-26T07:24:15.466Z,71.72
2018-12-26T07:26:45.357Z,71.91
2018-12-26T07:29:15.666Z,71.99
2018-12-26T07:31:45.552Z,71.75
2018-12-26T07:34:15.691Z,71.91
2018-12-26T07:36:46.009Z,71.75
2018-12-26T07:39:15.794Z,71.79
2018-12-26T07:41:45.538Z,72.02
2018-12-26T07:44:15.436Z,72.03
2018-12-26T07:46:45.758Z,72.05
2018-12-26T07:49:15.431Z,72.17
2018-12-26T07:51:46.223Z,72.43
2018-12-26T07:54:17.196Z,72.43
2018-12-26T07:56:47.024Z,72.33
2018-12-26T07:59:17.463Z,72.29
2018-12-26T08:01:47.339Z,72.30
2018-12-26T08:04:16.842Z,72.24
2018-12-26T08:06:46.341Z,71.84
2018-12-26T08:09:16.737Z,71.79
2018-12-26T08:11:46.336Z,71.68
2018-12-26T08:14:16.455Z,71.59
2018-12-26T08:16:46.169Z,71.59
2018-12-26T08:19:15.885Z,71.54
2018-12-26T08:21:45.652Z,71.83
2018-12-26T08:24:16.049Z,71.62
2018-12-26T08:26:46.037Z,71.71
2018-12-26T08:29:15.882Z,71.74
2018-12-26T08:31:45.529Z,72.08
2018-12-26T08:34:15.488Z,71.63
2018-12-26T08:36:46.405Z,71.79
2018-12-26T08:39:16.300Z,71.93
2018-12-26T08:41:46.191Z,71.99
2018-12-26T08:44:15.832Z,72.01
2018-12-26T08:46:45.742Z,72.01
2018-12-26T08:49:15.874Z,71.91
2018-12-26T08:51:46.085Z,72.18
2018-12-26T08:54:16.154Z,72.16
2018-12-26T08:56:46.139Z,71.80
2018-12-26T08:59:15.928Z,72.01
2018-12-26T09:01:46.165Z,72.19
2018-12-26T09:04:17.267Z,72.56
2018-12-26T09:06:47.271Z,72.50
2018-12-26T09:09:16.772Z,72.82
2018-12-26T09:11:46.469Z,72.57
2018-12-26T09:14:16.251Z,72.81
2018-12-26T09:16:45.779Z,72.75
2018-12-26T09:19:15.904Z,72.75
2018-12-26T09:21:46.256Z,72.69
2018-12-26T09:24:16.069Z,72.54
2018-12-26T09:26:45.969Z,72.62
2018-12-26T09:29:15.688Z,72.71
2018-12-26T09:31:46.062Z,72.61
2018-12-26T09:34:15.785Z,72.46
2018-12-26T09:36:45.776Z,72.50
2018-12-26T09:39:16.323Z,72.54
2018-12-26T09:41:45.844Z,72.21
2018-12-26T09:44:16.201Z,72.62
2018-12-26T09:46:47.226Z,72.47
2018-12-26T09:49:17.028Z,72.28
2018-12-26T09:51:52.664Z,72.33
2018-12-26T09:54:22.420Z,72.34
2018-12-26T09:56:52.801Z,72.11
2018-12-26T09:59:22.360Z,72.05
2018-12-26T10:01:51.851Z,72.08
2018-12-26T10:04:21.653Z,72.43
2018-12-26T10:06:51.207Z,72.19
2018-12-26T10:09:21.287Z,72.63
2018-12-26T10:11:51.336Z,72.50
2018-12-26T10:14:20.845Z,72.83
2018-12-26T10:16:51.194Z,72.81
2018-12-26T10:19:20.997Z,72.81
2018-12-26T10:21:50.981Z,72.84
2018-12-26T10:24:20.625Z,72.64
2018-12-26T10:26:51.495Z,72.61
2018-12-26T10:29:21.628Z,72.81
2018-12-26T10:31:51.261Z,72.73
2018-12-26T10:34:21.154Z,72.35
2018-12-26T10:36:51.329Z,72.35
2018-12-26T10:39:21.442Z,72.25
2018-12-26T10:41:51.270Z,72.36
2018-12-26T10:44:20.758Z,72.42
2018-12-26T10:46:50.565Z,72.43
2018-12-26T10:49:20.071Z,72.42
2018-12-26T10:51:49.616Z,72.37
2018-12-26T10:54:19.396Z,72.47
2018-12-26T10:56:49.252Z,72.54
2018-12-26T10:59:18.768Z,72.25
2018-12-26T11:01:48.253Z,72.19
2018-12-26T11:04:17.890Z,72.19
2018-12-26T11:06:47.391Z,72.16
2018-12-26T11:09:17.219Z,72.13
2018-12-26T11:11:46.993Z,71.99
2018-12-26T11:14:16.829Z,72.17
2018-12-26T11:16:46.595Z,72.01
2018-12-26T11:19:16.451Z,72.05
2018-12-26T11:21:45.998Z,72.11
2018-12-26T11:24:16.268Z,72.05
2018-12-26T11:26:46.968Z,72.42
2018-12-26T11:29:19.074Z,72.13
2018-12-26T11:31:48.797Z,72.71
2018-12-26T11:34:18.341Z,72.72
2018-12-26T11:36:48.135Z,72.73
2018-12-26T11:39:18.020Z,72.66
2018-12-26T11:41:47.588Z,72.53
2018-12-26T11:44:17.448Z,72.83
2018-12-26T11:46:50.510Z,72.79
2018-12-26T11:49:20.346Z,72.85
2018-12-26T11:51:50.412Z,72.85
2018-12-26T11:54:21.762Z,72.48
2018-12-26T11:56:51.324Z,72.73
2018-12-26T11:59:27.116Z,72.73
2018-12-26T12:01:52.301Z,72.89
2018-12-26T12:04:22.172Z,73.24
2018-12-26T12:06:51.732Z,73.12
2018-12-26T12:09:21.591Z,73.04
2018-12-26T12:11:51.205Z,72.87
2018-12-26T12:14:21.084Z,72.97
2018-12-26T12:16:51.170Z,73.32
2018-12-26T12:19:21.313Z,73.31
2018-12-26T12:21:51.177Z,73.61
2018-12-26T12:24:20.847Z,73.60
2018-12-26T12:26:50.789Z,73.49
2018-12-26T12:29:21.121Z,73.52
2018-12-26T12:31:51.675Z,73.66
2018-12-26T12:34:21.472Z,73.65
2018-12-26T12:36:51.043Z,73.61
2018-12-26T12:39:20.747Z,73.58
2018-12-26T12:41:50.564Z,73.68
2018-12-26T12:44:21.571Z,73.43
2018-12-26T12:46:51.925Z,73.21
2018-12-26T12:49:21.452Z,73.12
2018-12-26T12:51:50.972Z,73.27
2018-12-26T12:54:20.488Z,73.37
2018-12-26T12:56:50.544Z,73.42
2018-12-26T12:59:20.188Z,73.46
2018-12-26T13:01:49.767Z,73.64
2018-12-26T13:04:19.340Z,73.63
2018-12-26T13:06:48.836Z,73.74
2018-12-26T13:09:18.316Z,73.61
2018-12-26T13:11:47.890Z,73.66
2018-12-26T13:14:17.698Z,73.44
2018-12-26T13:16:47.529Z,73.47
2018-12-26T13:19:17.793Z,73.49
2018-12-26T13:21:47.892Z,73.30
2018-12-26T13:24:17.372Z,73.32
2018-12-26T13:26:47.193Z,73.50
2018-12-26T13:29:16.982Z,73.04
2018-12-26T13:31:47.207Z,72.78
2018-12-26T13:34:17.029Z,72.85
2018-12-26T13:36:46.819Z,72.64
2018-12-26T13:39:16.657Z,72.91
2018-12-26T13:41:46.697Z,72.89
2018-12-26T13:44:16.678Z,73.12
2018-12-26T13:46:46.474Z,72.97
2018-12-26T13:49:16.463Z,72.96
2018-12-26T13:51:46.396Z,73.04
2018-12-26T13:54:16.732Z,73.04
2018-12-26T13:56:46.477Z,72.94
2018-12-26T13:59:17.243Z,73.03
2018-12-26T14:01:46.748Z,73.23
2018-12-26T14:04:16.736Z,73.54
2018-12-26T14:06:46.778Z,73.65
2018-12-26T14:09:16.769Z,73.67
2018-12-26T14:11:46.471Z,73.76
2018-12-26T14:14:16.845Z,73.75
2018-12-26T14:16:46.440Z,73.70
2018-12-26T14:19:16.947Z,73.60
2018-12-26T14:21:46.716Z,73.79
2018-12-26T14:24:16.825Z,73.81
2018-12-26T14:26:47.159Z,73.96
2018-12-26T14:29:16.926Z,74.01
2018-12-26T14:31:46.782Z,73.93
2018-12-26T14:34:16.923Z,73.95
2018-12-26T14:36:46.869Z,73.95
2018-12-26T14:39:17.669Z,74.07
2018-12-26T14:41:47.660Z,74.22
2018-12-26T14:44:17.922Z,74.33
2018-12-26T14:46:47.760Z,74.23
2018-12-26T14:49:17.311Z,74.19
2018-12-26T14:51:47.216Z,74.37
2018-12-26T14:54:16.770Z,74.51
2018-12-26T14:56:46.635Z,74.56
2018-12-26T14:59:17.154Z,74.52
2018-12-26T15:01:47.330Z,74.67
2018-12-26T15:04:17.299Z,74.68
2018-12-26T15:06:48.007Z,74.67
2018-12-26T15:09:17.768Z,74.38
2018-12-26T15:11:47.439Z,74.52
2018-12-26T15:14:20.275Z,74.52
2018-12-26T15:16:49.775Z,74.70
2018-12-26T15:19:20.508Z,74.72
2018-12-26T15:21:50.329Z,74.68
2018-12-26T15:24:20.412Z,74.66
2018-12-26T15:26:49.971Z,74.84
2018-12-26T15:29:19.774Z,74.79
2018-12-26T15:31:49.353Z,74.67
2018-12-26T15:34:19.754Z,74.74
2018-12-26T15:36:49.300Z,74.79
2018-12-26T15:39:19.142Z,74.81
2018-12-26T15:41:48.680Z,74.64
2018-12-26T15:44:18.676Z,74.53
2018-12-26T15:46:48.197Z,74.54
2018-12-26T15:49:17.719Z,74.57
2018-12-26T15:51:47.775Z,74.40
2018-12-26T15:54:17.306Z,74.54
2018-12-26T15:56:47.408Z,74.54
2018-12-26T15:59:16.930Z,74.51
2018-12-26T16:01:47.153Z,74.55
2018-12-26T16:04:17.039Z,74.46
2018-12-26T16:06:47.353Z,74.27
2018-12-26T16:09:17.382Z,74.34
2018-12-26T16:11:46.947Z,74.39
2018-12-26T16:14:16.831Z,74.32
2018-12-26T16:16:46.840Z,74.61
2018-12-26T16:19:17.349Z,74.66
2018-12-26T16:21:47.125Z,74.82
2018-12-26T16:24:16.838Z,74.76
2018-12-26T16:26:46.854Z,74.73
2018-12-26T16:29:17.098Z,74.61
2018-12-26T16:31:46.795Z,74.79
2018-12-26T16:34:17.172Z,74.71
2018-12-26T16:36:47.083Z,74.77
2018-12-26T16:39:16.876Z,74.78
2018-12-26T16:41:47.083Z,74.74
2018-12-26T16:44:17.172Z,74.72
2018-12-26T16:46:47.046Z,74.72
2018-12-26T16:49:17.199Z,74.72
2018-12-26T16:51:47.610Z,74.77
2018-12-26T16:54:17.434Z,74.69
2018-12-26T16:56:47.314Z,75.03
2018-12-26T16:59:17.521Z,74.93
2018-12-26T17:01:47.287Z,74.91
2018-12-26T17:04:17.754Z,74.82
2018-12-26T17:06:48.676Z,74.78
2018-12-26T17:09:18.297Z,74.83
2018-12-26T17:11:48.191Z,74.86
2018-12-26T17:14:17.955Z,74.90
2018-12-26T17:16:47.767Z,74.95
2018-12-26T17:19:17.504Z,74.98
2018-12-26T17:21:47.686Z,74.88
2018-12-26T17:24:17.526Z,74.85
2018-12-26T17:26:47.429Z,74.87
2018-12-26T17:29:17.145Z,74.85
2018-12-26T17:31:47.483Z,74.93
2018-12-26T17:34:17.202Z,74.90
2018-12-26T17:36:47.146Z,74.84
2018-12-26T17:39:17.202Z,74.78
2018-12-26T17:41:47.219Z,74.61
2018-12-26T17:44:17.484Z,74.66
2018-12-26T17:46:47.224Z,74.62
2018-12-26T17:49:17.308Z,74.63
2018-12-26T17:51:47.298Z,74.72
2018-12-26T17:54:45.940Z,74.74
2018-12-26T17:57:23.682Z,74.68
2018-12-26T18:00:46.748Z,74.62
2018-12-26T18:03:17.769Z,74.44
2018-12-26T18:05:47.571Z,74.48
2018-12-26T18:08:17.260Z,74.58
2018-12-26T18:10:47.549Z,74.63
2018-12-26T18:13:17.324Z,74.53
2018-12-26T18:15:47.620Z,74.32
2018-12-26T18:18:17.246Z,74.25
2018-12-26T18:20:47.284Z,74.38
2018-12-26T18:23:19.758Z,74.43
2018-12-26T18:25:49.558Z,74.18
2018-12-26T18:28:19.302Z,74.09
2018-12-26T18:30:49.101Z,73.98
2018-12-26T18:33:19.243Z,73.98
2018-12-26T18:35:48.779Z,73.68
2018-12-26T18:38:18.608Z,73.97
2018-12-26T18:40:48.156Z,74.08
2018-12-26T18:43:17.662Z,74.08
2018-12-26T18:45:47.618Z,74.14
2018-12-26T18:48:18.158Z,74.16
2018-12-26T18:50:47.702Z,74.12
2018-12-26T18:53:17.650Z,73.89
2018-12-26T18:55:47.568Z,74.01
2018-12-26T18:58:17.703Z,74.05
2018-12-26T19:00:48.002Z,73.87
2018-12-26T19:03:17.883Z,73.93
2018-12-26T19:05:47.501Z,73.52
2018-12-26T19:08:17.415Z,73.51
2018-12-26T19:10:47.502Z,73.67
2018-12-26T19:13:17.738Z,73.97
2018-12-26T19:15:47.514Z,73.87
2018-12-26T19:18:17.750Z,73.77
2018-12-26T19:20:47.826Z,73.74
2018-12-26T19:23:18.086Z,73.74
2018-12-26T19:25:47.641Z,73.66
2018-12-26T19:28:17.500Z,73.75
2018-12-26T19:30:47.977Z,73.66
2018-12-26T19:33:19.517Z,73.65
2018-12-26T19:35:49.043Z,73.66
2018-12-26T19:38:18.819Z,73.65
2018-12-26T19:40:48.630Z,73.82
2018-12-26T19:43:18.182Z,74.01
2018-12-26T19:45:48.295Z,73.85
2018-12-26T19:48:18.514Z,73.90
2018-12-26T19:50:48.276Z,73.87
2018-12-26T19:53:17.840Z,73.64
2018-12-26T19:55:47.625Z,73.79
2018-12-26T19:58:17.714Z,73.80
2018-12-26T20:00:47.506Z,73.76
2018-12-26T20:03:17.341Z,73.59
2018-12-26T20:05:47.027Z,73.57
2018-12-26T20:08:16.652Z,73.83
2018-12-26T20:10:46.441Z,73.72
2018-12-26T20:13:16.292Z,73.76
2018-12-26T20:15:45.789Z,73.73
2018-12-26T20:18:16.780Z,74.06
2018-12-26T20:20:46.523Z,74.06
2018-12-26T20:23:16.503Z,73.63
2018-12-26T20:25:46.625Z,73.45
2018-12-26T20:28:16.416Z,73.71
2018-12-26T20:30:46.223Z,73.78
2018-12-26T20:33:16.116Z,73.66
2018-12-26T20:35:45.754Z,73.68
2018-12-26T20:38:15.290Z,73.64
2018-12-26T20:40:45.179Z,73.72
2018-12-26T20:43:14.950Z,73.61
2018-12-26T20:45:44.549Z,73.70
2018-12-26T20:48:14.277Z,73.70
2018-12-26T20:50:43.957Z,73.66
2018-12-26T20:53:13.952Z,73.53
2018-12-26T20:55:43.504Z,73.39
2018-12-26T20:58:13.299Z,73.56
2018-12-26T21:00:42.911Z,73.66
2018-12-26T21:03:12.818Z,73.75
2018-12-26T21:05:42.628Z,73.79
2018-12-26T21:08:12.147Z,73.72
2018-12-26T21:10:41.694Z,73.80
2018-12-26T21:13:11.266Z,73.74
2018-12-26T21:15:41.077Z,73.77
2018-12-26T21:18:13.342Z,73.44
2018-12-26T21:20:42.900Z,73.29
2018-12-26T21:23:14.042Z,73.19
2018-12-26T21:25:46.734Z,73.14
2018-12-26T21:28:16.060Z,73.23
2018-12-26T21:30:45.910Z,73.27
2018-12-26T21:33:16.095Z,73.10
2018-12-26T21:35:45.955Z,73.11
2018-12-26T21:38:15.744Z,73.18
2018-12-26T21:40:45.987Z,73.16
2018-12-26T21:43:15.518Z,73.19
2018-12-26T21:45:45.247Z,73.23
2018-12-26T21:48:16.495Z,72.97
2018-12-26T21:50:46.414Z,72.86
2018-12-26T21:53:16.390Z,73.02
2018-12-26T21:55:46.073Z,73.32
2018-12-26T21:58:16.174Z,73.19
2018-12-26T22:00:46.030Z,73.28
2018-12-26T22:03:15.750Z,73.39
2018-12-26T22:05:45.316Z,73.29
2018-12-26T22:08:14.840Z,73.54
2018-12-26T22:10:45.019Z,73.70
2018-12-26T22:13:14.525Z,73.36
2018-12-26T22:15:44.140Z,73.28
2018-12-26T22:18:13.987Z,73.49
2018-12-26T22:20:43.540Z,73.31
2018-12-26T22:23:13.406Z,73.37
2018-12-26T22:25:43.774Z,73.24
2018-12-26T22:28:13.588Z,73.25
2018-12-26T22:30:43.431Z,73.40
2018-12-26T22:33:13.366Z,73.34
2018-12-26T22:35:43.888Z,73.28
2018-12-26T22:38:13.743Z,73.20
2018-12-26T22:40:43.332Z,73.28
2018-12-26T22:43:13.005Z,72.99
2018-12-26T22:45:44.112Z,73.21
2018-12-26T22:48:14.100Z,73.09
2018-12-26T22:50:43.647Z,73.05
2018-12-26T22:53:13.233Z,73.05
2018-12-26T22:55:43.024Z,73.08
2018-12-26T22:58:12.542Z,72.99
2018-12-26T23:00:46.163Z,73.05
2018-12-26T23:03:15.690Z,73.06
2018-12-26T23:05:45.656Z,73.15
2018-12-26T23:08:15.146Z,72.91
2018-12-26T23:10:44.974Z,73.03
2018-12-26T23:13:16.092Z,73.24
2018-12-26T23:15:45.897Z,73.24
2018-12-26T23:18:15.711Z,73.21
2018-12-26T23:20:45.469Z,73.43
2018-12-26T23:23:15.513Z,73.06
2018-12-26T23:25:45.057Z,73.07
2018-12-26T23:28:15.123Z,73.12
2018-12-26T23:30:44.652Z,73.13
2018-12-26T23:33:14.422Z,72.95
2018-12-26T23:35:44.057Z,73.17
2018-12-26T23:38:13.576Z,72.98
2018-12-26T23:40:43.087Z,72.95
2018-12-26T23:43:12.960Z,73.04
2018-12-26T23:45:42.671Z,73.05
2018-12-26T23:48:12.455Z,73.08
2018-12-26T23:50:42.418Z,73.01
2018-12-26T23:53:12.158Z,73.01
2018-12-26T23:55:41.673Z,72.92
2018-12-26T23:58:11.231Z,72.83
